createdAt,value
2023-03-05T00:02:18.914Z,1.30
2023-03-05T00:07:25.087Z,1.30
2023-03-05T00:12:30.739Z,1.20
2023-03-05T00:17:34.076Z,1.20
2023-03-05T00:22:37.768Z,1.20
2023-03-05T00:27:42.419Z,1.20
2023-03-05T00:32:45.830Z,1.20
2023-03-05T00:37:49.989Z,1.20
2023-03-05T00:42:54.861Z,1.80
2023-03-05T00:47:58.667Z,1.20
2023-03-05T00:53:02.101Z,1.20
2023-03-05T00:58:06.948Z,1.20
2023-03-05T01:03:10.283Z,0.70
2023-03-05T01:08:13.623Z,1.30
2023-03-05T01:13:18.333Z,1.20
2023-03-05T01:18:21.999Z,1.20
2023-03-05T01:23:25.371Z,1.10
2023-03-05T01:28:30.318Z,1.20
2023-03-05T01:33:33.541Z,-1.90
2023-03-05T01:38:36.874Z,1.20
2023-03-05T01:43:42.850Z,1.20
2023-03-05T01:48:50.187Z,1.10
2023-03-05T01:53:54.940Z,1.20
2023-03-05T01:59:04.293Z,1.20
2023-03-05T02:04:09.593Z,1.20
2023-03-05T02:09:13.838Z,1.20
2023-03-05T02:14:18.694Z,1.10
2023-03-05T02:19:21.977Z,1.20
2023-03-05T02:24:37.891Z,1.20
2023-03-05T02:29:44.368Z,1.20
2023-03-05T02:34:47.728Z,1.20
2023-03-05T02:39:53.569Z,1.20
2023-03-05T02:44:57.383Z,1.20
2023-03-05T02:50:00.903Z,1.20
2023-03-05T02:55:07.433Z,0.00
2023-03-05T03:00:12.121Z,1.20
2023-03-05T03:05:15.612Z,1.20
2023-03-05T03:10:20.466Z,0.90
2023-03-05T03:15:23.877Z,1.90
2023-03-05T03:20:28.871Z,1.10
2023-03-05T03:25:33.875Z,1.10
2023-03-05T03:30:37.161Z,1.10
2023-03-05T03:35:40.457Z,1.10
2023-03-05T03:40:45.143Z,1.10
2023-03-05T03:45:48.515Z,1.10
2023-03-05T03:50:51.870Z,1.10
2023-03-05T03:56:00.910Z,1.20
2023-03-05T04:01:04.243Z,1.10
2023-03-05T04:06:08.135Z,1.10
2023-03-05T04:11:12.738Z,1.00
2023-03-05T04:16:17.019Z,1.10
2023-03-05T04:21:20.477Z,1.00
2023-03-05T04:26:25.207Z,1.00
2023-03-05T04:31:28.468Z,1.00
2023-03-05T04:36:31.776Z,1.00
2023-03-05T04:41:36.363Z,1.00
2023-03-05T04:46:39.692Z,1.10
2023-03-05T04:51:43.212Z,1.10
2023-03-05T04:56:47.881Z,1.00
2023-03-05T05:01:51.176Z,1.10
2023-03-05T05:06:57.161Z,1.10
2023-03-05T05:12:01.792Z,1.10
2023-03-05T05:17:06.615Z,1.10
2023-03-05T05:22:09.866Z,1.00
2023-03-05T05:27:14.502Z,1.00
2023-03-05T05:32:17.944Z,1.10
2023-03-05T05:37:21.288Z,1.10
2023-03-05T05:42:26.526Z,1.10
2023-03-05T05:47:30.631Z,1.10
2023-03-05T05:52:33.967Z,1.10
2023-03-05T05:57:39.163Z,1.10
2023-03-05T06:02:43.534Z,1.10
2023-03-05T06:07:46.830Z,1.10
2023-03-05T06:12:51.498Z,1.20
2023-03-05T06:17:54.861Z,1.10
2023-03-05T06:22:58.161Z,1.10
2023-03-05T06:28:02.768Z,1.50
2023-03-05T06:33:06.998Z,1.10
2023-03-05T06:38:10.905Z,1.20
2023-03-05T06:43:15.504Z,1.30
2023-03-05T06:48:18.707Z,1.20
2023-03-05T06:53:21.919Z,1.30
2023-03-05T06:58:26.502Z,1.30
2023-03-05T07:03:29.743Z,1.30
2023-03-05T07:08:33.585Z,1.40
2023-03-05T07:13:38.372Z,1.40
2023-03-05T07:18:41.883Z,1.40
2023-03-05T07:23:45.270Z,1.40
2023-03-05T07:28:50.054Z,1.40
2023-03-05T07:33:54.359Z,1.40
2023-03-05T07:38:57.932Z,1.40
2023-03-05T07:44:03.315Z,1.40
2023-03-05T07:49:06.656Z,1.50
2023-03-05T07:54:11.360Z,1.60
2023-03-05T07:59:16.222Z,1.60
2023-03-05T08:04:19.517Z,1.70
2023-03-05T08:09:22.857Z,1.70
2023-03-05T08:14:27.703Z,1.80
2023-03-05T08:19:30.960Z,1.80
2023-03-05T08:24:34.200Z,2.00
2023-03-05T08:29:38.952Z,4.00
2023-03-05T08:34:42.336Z,3.50
2023-03-05T08:39:45.558Z,2.10
2023-03-05T08:44:50.282Z,2.10
2023-03-05T08:49:55.657Z,2.20
2023-03-05T08:54:59.125Z,2.20
2023-03-05T09:00:03.718Z,2.30
2023-03-05T09:05:07.750Z,2.20
2023-03-05T09:10:13.833Z,2.20
2023-03-05T09:15:18.646Z,2.30
2023-03-05T09:20:22.052Z,2.40
2023-03-05T09:25:25.270Z,2.30
2023-03-05T09:30:29.892Z,2.40
2023-03-05T09:35:36.700Z,2.40
2023-03-05T09:40:54.680Z,2.30
2023-03-05T09:46:13.243Z,2.50
2023-03-05T09:51:22.083Z,2.60
2023-03-05T09:56:29.394Z,2.80
2023-03-05T10:01:42.178Z,2.80
2023-03-05T10:06:51.415Z,3.00
2023-03-05T10:11:58.144Z,3.10
2023-03-05T10:17:55.991Z,2.90
2023-03-05T10:23:24.751Z,3.10
2023-03-05T10:28:43.597Z,3.40
2023-03-05T10:34:01.212Z,3.50
2023-03-05T10:39:34.714Z,3.40
2023-03-05T10:44:42.717Z,3.30
2023-03-05T10:49:52.548Z,3.20
2023-03-05T10:54:56.446Z,3.30
2023-03-05T11:00:08.420Z,3.30
2023-03-05T11:05:41.509Z,3.20
2023-03-05T11:10:44.769Z,3.20
2023-03-05T11:16:00.487Z,3.30
2023-03-05T11:21:13.663Z,3.40
2023-03-05T11:26:23.424Z,3.40
2023-03-05T11:31:29.367Z,3.60
2023-03-05T11:36:35.671Z,3.50
2023-03-05T11:41:41.913Z,3.50
2023-03-05T11:46:49.683Z,3.50
2023-03-05T11:52:07.160Z,3.70
2023-03-05T11:57:14.864Z,3.80
2023-03-05T12:02:21.949Z,3.70
2023-03-05T12:07:34.836Z,3.70
2023-03-05T12:12:46.418Z,3.80
2023-03-05T12:18:04.779Z,3.80
2023-03-05T12:23:14.185Z,3.70
2023-03-05T12:28:39.756Z,3.60
2023-03-05T12:33:45.360Z,3.50
2023-03-05T12:38:52.266Z,3.60
2023-03-05T12:44:12.446Z,3.70
2023-03-05T12:49:39.509Z,3.60
2023-03-05T12:54:45.832Z,3.50
2023-03-05T12:59:54.700Z,3.50
2023-03-05T13:05:01.624Z,3.50
2023-03-05T13:10:07.178Z,3.50
2023-03-05T13:15:17.543Z,3.30
2023-03-05T13:20:34.028Z,3.30
2023-03-05T13:25:38.732Z,3.30
2023-03-05T13:30:51.487Z,3.30
2023-03-05T13:35:55.033Z,3.30
2023-03-05T13:41:09.031Z,3.30
2023-03-05T13:46:12.628Z,3.20
2023-03-05T13:51:15.912Z,3.10
2023-03-05T13:56:22.163Z,3.10
2023-03-05T14:01:31.711Z,3.20
2023-03-05T14:06:40.315Z,3.20
2023-03-05T14:11:54.560Z,3.20
2023-03-05T14:17:17.850Z,3.20
2023-03-05T14:22:39.981Z,3.20
2023-03-05T14:27:48.107Z,3.10
2023-03-05T14:32:54.355Z,3.10
2023-03-05T14:37:59.469Z,3.10
2023-03-05T14:43:05.671Z,3.20
2023-03-05T14:48:11.615Z,3.20
2023-03-05T14:53:18.100Z,3.20
2023-03-05T14:58:26.270Z,3.30
2023-03-05T15:03:29.583Z,3.30
2023-03-05T15:08:33.821Z,3.30
2023-03-05T15:13:38.584Z,3.40
2023-03-05T15:18:41.959Z,3.50
2023-03-05T15:23:45.528Z,3.50
2023-03-05T15:28:50.307Z,3.40
2023-03-05T15:33:54.377Z,3.30
2023-03-05T15:38:57.614Z,3.40
2023-03-05T15:44:02.211Z,3.40
2023-03-05T15:49:05.436Z,3.30
2023-03-05T15:54:08.740Z,3.30
2023-03-05T15:59:14.392Z,3.20
2023-03-05T16:04:18.641Z,3.20
2023-03-05T16:09:23.094Z,3.10
2023-03-05T16:14:31.476Z,3.00
2023-03-05T16:19:36.529Z,3.00
2023-03-05T16:24:39.819Z,2.90
2023-03-05T16:29:44.514Z,2.90
2023-03-05T16:34:47.785Z,2.90
2023-03-05T16:39:51.088Z,2.90
2023-03-05T16:44:55.671Z,2.90
2023-03-05T16:49:59.287Z,2.80
2023-03-05T16:55:02.596Z,2.80
2023-03-05T17:00:09.222Z,2.80
2023-03-05T17:05:12.772Z,2.70
2023-03-05T17:10:18.659Z,2.70
2023-03-05T17:15:23.260Z,2.70
2023-03-05T17:20:26.516Z,2.60
2023-03-05T17:25:30.116Z,2.60
2023-03-05T17:30:37.047Z,2.60
2023-03-05T17:35:40.524Z,2.60
2023-03-05T17:40:44.152Z,2.50
2023-03-05T17:45:49.077Z,2.50
2023-03-05T17:50:52.376Z,2.40
2023-03-05T17:55:55.660Z,2.40
2023-03-05T18:01:00.480Z,2.40
2023-03-05T18:06:05.000Z,2.40
2023-03-05T18:11:08.279Z,2.30
2023-03-05T18:16:14.337Z,2.30
2023-03-05T18:21:21.103Z,2.30
2023-03-05T18:26:24.557Z,2.30
2023-03-05T18:31:29.399Z,2.20
2023-03-05T18:36:33.533Z,2.20
2023-03-05T18:41:37.358Z,2.20
2023-03-05T18:46:42.729Z,2.20
2023-03-05T18:51:46.471Z,2.20
2023-03-05T18:56:49.962Z,2.10
2023-03-05T19:01:54.808Z,2.10
2023-03-05T19:06:58.230Z,2.10
2023-03-05T19:12:01.614Z,2.10
2023-03-05T19:17:06.311Z,2.10
2023-03-05T19:22:10.456Z,2.20
2023-03-05T19:27:14.240Z,2.10
2023-03-05T19:32:21.122Z,2.10
2023-03-05T19:37:25.017Z,2.10
2023-03-05T19:42:28.416Z,2.10
2023-03-05T19:47:33.474Z,2.00
2023-03-05T19:52:36.868Z,2.10
2023-03-05T19:57:40.257Z,2.10
2023-03-05T20:02:45.116Z,2.10
2023-03-05T20:07:48.471Z,2.10
2023-03-05T20:12:52.195Z,2.10
2023-03-05T20:17:57.031Z,2.10
2023-03-05T20:23:00.437Z,2.00
2023-03-05T20:28:03.810Z,2.00
2023-03-05T20:33:08.586Z,2.00
2023-03-05T20:38:20.970Z,2.00
2023-03-05T20:43:24.757Z,1.90
2023-03-05T20:48:30.921Z,1.90
2023-03-05T20:53:34.184Z,1.90
2023-03-05T20:58:37.908Z,1.90
2023-03-05T21:03:42.979Z,1.90
2023-03-05T21:08:46.374Z,2.60
2023-03-05T21:13:49.687Z,2.00
2023-03-05T21:18:56.061Z,1.90
2023-03-05T21:23:59.421Z,1.80
2023-03-05T21:29:02.726Z,1.80
2023-03-05T21:34:07.598Z,1.70
2023-03-05T21:39:10.892Z,1.80
2023-03-05T21:44:17.665Z,1.80
2023-03-05T21:49:22.383Z,1.80
2023-03-05T21:54:27.396Z,1.70
2023-03-05T21:59:32.042Z,1.70
2023-03-05T22:04:36.708Z,1.70
2023-03-05T22:09:40.085Z,1.70
2023-03-05T22:14:43.364Z,1.70
2023-03-05T22:19:48.022Z,1.70
2023-03-05T22:24:51.286Z,1.70
2023-03-05T22:29:54.541Z,1.70
2023-03-05T22:34:59.192Z,1.80
2023-03-05T22:40:02.587Z,1.80
2023-03-05T22:45:06.837Z,1.70
2023-03-05T22:50:13.358Z,1.70
2023-03-05T22:55:17.594Z,1.70
2023-03-05T23:00:24.110Z,1.60
2023-03-05T23:05:28.814Z,1.60
2023-03-05T23:10:32.125Z,1.60
2023-03-05T23:15:37.758Z,1.60
2023-03-05T23:20:42.727Z,4.30
2023-03-05T23:25:46.125Z,1.60
2023-03-05T23:30:49.477Z,1.50
2023-03-05T23:35:55.943Z,0.60
2023-03-05T23:41:01.220Z,1.60
2023-03-05T23:46:04.774Z,1.60
2023-03-05T23:51:11.875Z,1.50
2023-03-05T23:56:16.504Z,1.50
